Time;durP1;ratioP1;P1;durP2;ratioP2;P2;SDS_P1;SDS_P2;PMS_P1;PMS_P2;Temp;Humidity;BMP_temperature;BMP_pressure;BME280_temperature;BME280_humidity;BME280_pressure;Samples;Min_cycle;Max_cycle;Signal;HPM_P1;HPM_P2
2022/06/01 00:01:29;;;;;;;5.40;3.90;;;11.10;99.90;;;;;;4248508;27;20099;-83
2022/06/01 00:03:32;;;;;;;10.20;4.82;;;11.10;99.90;;;;;;4230231;28;20126;-84
2022/06/01 00:05:33;;;;;;;6.60;4.13;;;11.10;99.90;;;;;;4229265;28;20078;-84
2022/06/01 00:07:35;;;;;;;8.32;4.80;;;11.10;99.90;;;;;;4248399;27;20074;-84
2022/06/01 00:09:36;;;;;;;8.02;4.18;;;11.10;99.90;;;;;;4230010;28;20093;-83
2022/06/01 00:11:36;;;;;;;8.32;4.50;;;11.10;99.90;;;;;;4248345;27;20035;-84
2022/06/01 00:13:38;;;;;;;7.35;4.50;;;11.10;99.90;;;;;;4248021;27;20097;-84
2022/06/01 00:15:39;;;;;;;6.65;4.65;;;11.10;99.90;;;;;;4247771;27;20088;-84
2022/06/01 00:17:40;;;;;;;7.45;5.32;;;11.10;99.90;;;;;;4248270;27;20074;-84
2022/06/01 00:19:40;;;;;;;12.00;5.18;;;11.10;99.90;;;;;;4248266;27;20047;-83
2022/06/01 00:24:00;;;;;;;8.73;5.35;;;11.10;99.90;;;;;;4248074;27;20043;-83
2022/06/01 00:26:01;;;;;;;5.75;4.43;;;11.10;99.90;;;;;;4247924;27;20463;-83
2022/06/01 00:28:02;;;;;;;7.82;5.20;;;11.10;99.90;;;;;;4247498;27;20479;-83
2022/06/01 00:30:05;;;;;;;6.93;4.85;;;11.10;99.90;;;;;;4247175;27;20043;-84
2022/06/01 00:32:08;;;;;;;7.68;5.57;;;11.10;99.90;;;;;;4229085;28;20163;-84
2022/06/01 00:34:09;;;;;;;8.10;4.85;;;11.10;99.90;;;;;;4247432;27;20039;-84
2022/06/01 00:36:10;;;;;;;7.47;5.10;;;11.10;99.90;;;;;;4247508;27;20087;-84
2022/06/01 00:38:11;;;;;;;9.32;5.18;;;11.10;99.90;;;;;;4228347;28;20042;-84
2022/06/01 00:40:14;;;;;;;11.15;5.70;;;11.10;99.90;;;;;;4247197;27;20463;-84
2022/06/01 00:42:18;;;;;;;8.82;5.35;;;11.10;99.90;;;;;;4247430;27;20456;-84
2022/06/01 00:44:19;;;;;;;7.57;4.75;;;11.10;99.90;;;;;;4247931;27;20031;-84
2022/06/01 00:46:19;;;;;;;8.75;5.10;;;11.20;99.90;;;;;;4247871;27;20047;-84
2022/06/01 00:48:24;;;;;;;11.95;6.22;;;11.10;99.90;;;;;;4247577;27;20047;-83
2022/06/01 00:50:34;;;;;;;9.23;5.90;;;11.10;99.90;;;;;;4247721;27;20036;-83
2022/06/01 00:52:40;;;;;;;12.50;7.47;;;11.10;99.90;;;;;;4247161;27;20031;-84
2022/06/01 00:54:41;;;;;;;8.48;5.60;;;11.10;99.90;;;;;;4247738;27;20051;-83
2022/06/01 00:56:46;;;;;;;11.52;5.97;;;11.10;99.90;;;;;;4247772;27;20036;-84
2022/06/01 00:58:50;;;;;;;10.30;5.38;;;11.10;99.90;;;;;;4247409;27;20053;-84
2022/06/01 01:00:52;;;;;;;8.93;5.40;;;11.00;99.90;;;;;;4247732;27;20062;-84
2022/06/01 01:02:56;;;;;;;9.82;6.03;;;11.00;99.90;;;;;;4247885;27;20398;-84
2022/06/01 01:04:56;;;;;;;7.05;4.90;;;11.10;99.90;;;;;;4247306;27;20047;-84
2022/06/01 01:07:03;;;;;;;8.95;6.05;;;11.10;99.90;;;;;;4247759;27;20123;-84
2022/06/01 01:09:06;;;;;;;9.23;5.60;;;11.10;99.90;;;;;;4248046;27;20050;-84
2022/06/01 01:11:08;;;;;;;9.70;5.93;;;11.00;99.90;;;;;;4247654;28;20589;-84
2022/06/01 01:13:14;;;;;;;9.70;5.50;;;11.00;99.90;;;;;;4247048;28;20068;-84
2022/06/01 01:15:14;;;;;;;9.63;5.55;;;11.00;99.90;;;;;;4247489;28;20039;-84
2022/06/01 01:17:15;;;;;;;9.35;6.30;;;11.00;99.90;;;;;;4248538;27;20126;-84
2022/06/01 01:19:36;;;;;;;8.77;5.65;;;11.00;99.90;;;;;;4251037;27;20046;-84
2022/06/01 01:21:48;;;;;;;9.90;6.00;;;11.00;99.90;;;;;;4250157;27;20043;-84
2022/06/01 01:24:03;;;;;;;11.57;6.35;;;11.00;99.90;;;;;;4251024;27;20051;-84
2022/06/01 01:26:06;;;;;;;9.75;6.45;;;11.00;99.90;;;;;;4251080;27;20039;-84
2022/06/01 01:28:08;;;;;;;9.23;6.00;;;11.00;99.90;;;;;;4251067;27;20051;-84
2022/06/01 01:30:38;;;;;;;8.40;5.97;;;11.00;99.90;;;;;;4250990;27;20066;-84
2022/06/01 01:32:39;;;;;;;9.13;5.88;;;11.00;99.90;;;;;;4236449;27;20054;-84
2022/06/01 01:34:41;;;;;;;8.48;6.15;;;11.00;99.90;;;;;;4250899;27;20046;-84
2022/06/01 01:36:48;;;;;;;11.32;5.90;;;11.00;99.90;;;;;;4250880;27;20410;-83
2022/06/01 01:38:58;;;;;;;10.30;6.05;;;11.00;99.90;;;;;;4250336;27;20526;-83
2022/06/01 01:41:10;;;;;;;8.63;5.40;;;11.00;99.90;;;;;;4250852;27;20039;-84
2022/06/01 01:43:11;;;;;;;11.73;6.03;;;11.00;99.90;;;;;;4250741;27;20479;-84
2022/06/01 01:45:26;;;;;;;8.15;5.88;;;11.00;99.90;;;;;;4250737;27;20070;-83
2022/06/01 01:47:28;;;;;;;9.77;6.15;;;11.00;99.90;;;;;;4232530;28;20104;-83
2022/06/01 01:49:33;;;;;;;9.00;5.50;;;10.90;99.90;;;;;;4232619;28;20271;-83
2022/06/01 01:51:34;;;;;;;12.52;5.35;;;10.90;99.90;;;;;;4250634;27;20400;-83
2022/06/01 01:53:35;;;;;;;7.85;5.57;;;10.90;99.90;;;;;;4249915;27;20071;-83
2022/06/01 01:55:45;;;;;;;10.43;5.75;;;10.90;99.90;;;;;;4231105;28;20055;-83
2022/06/01 01:58:16;;;;;;;9.70;5.95;;;10.90;99.90;;;;;;4250036;27;20047;-84
2022/06/01 02:00:39;;;;;;;9.80;5.82;;;10.90;99.90;;;;;;4249950;27;20625;-83
2022/06/01 02:02:44;;;;;;;10.40;5.25;;;10.90;99.90;;;;;;4249900;27;20126;-83
2022/06/01 02:07:49;;;;;;;8.77;5.90;;;10.80;99.90;;;;;;4214808;27;20053;-83
2022/06/01 02:14:46;;;;;;;9.43;6.05;;;10.70;99.90;;;;;;4231495;28;20134;-83
2022/06/01 02:16:59;;;;;;;8.32;5.90;;;10.70;99.90;;;;;;4250085;27;20035;-83
2022/06/01 02:19:04;;;;;;;10.95;6.70;;;10.70;99.90;;;;;;4250223;27;20078;-83
2022/06/01 02:21:09;;;;;;;10.52;5.72;;;10.70;99.90;;;;;;4250009;27;20063;-83
2022/06/01 02:23:13;;;;;;;8.60;5.63;;;10.70;99.90;;;;;;4250102;27;20058;-83
2022/06/01 02:25:14;;;;;;;9.32;5.75;;;10.70;99.90;;;;;;4249651;27;20043;-83
2022/06/01 02:27:16;;;;;;;8.00;5.75;;;10.70;99.90;;;;;;4250047;27;20067;-83
2022/06/01 02:29:22;;;;;;;8.85;5.90;;;10.70;99.90;;;;;;4249336;27;20047;-83
2022/06/01 02:31:23;;;;;;;7.28;5.90;;;10.70;99.90;;;;;;4249666;27;20092;-83
2022/06/01 02:33:31;;;;;;;9.23;7.32;;;10.70;99.90;;;;;;4249449;27;20531;-83
2022/06/01 02:35:38;;;;;;;9.95;7.10;;;10.70;99.90;;;;;;4249811;27;20050;-84
2022/06/01 02:37:42;;;;;;;10.73;7.55;;;10.70;99.90;;;;;;4249913;27;20071;-83
2022/06/01 02:39:46;;;;;;;10.75;7.20;;;10.60;99.90;;;;;;4231410;28;20052;-83
2022/06/01 02:44:05;;;;;;;;;;;10.60;99.90;;;;;;4250035;27;20089;-83
2022/06/01 02:46:06;;;;;;;10.57;7.15;;;10.60;99.90;;;;;;4249593;27;20329;-83
2022/06/01 02:48:07;;;;;;;14.93;7.00;;;10.60;99.90;;;;;;4249499;27;20414;-83
2022/06/01 02:50:12;;;;;;;9.45;7.03;;;10.60;99.90;;;;;;4249741;27;20071;-83
2022/06/01 02:52:13;;;;;;;10.73;7.25;;;10.60;99.90;;;;;;4249329;27;20078;-83
2022/06/01 02:54:14;;;;;;;9.98;6.90;;;10.60;99.90;;;;;;4249222;27;20039;-83
2022/06/01 02:56:15;;;;;;;11.13;6.63;;;10.60;99.90;;;;;;4249694;27;20543;-83
2022/06/01 02:58:16;;;;;;;9.63;7.07;;;10.60;99.90;;;;;;4249393;27;20164;-83
2022/06/01 03:00:18;;;;;;;11.48;7.53;;;10.60;99.90;;;;;;4249459;27;20489;-84
2022/06/01 03:02:19;;;;;;;12.98;8.20;;;10.60;99.90;;;;;;4249484;27;20043;-83
2022/06/01 03:04:20;;;;;;;11.20;7.47;;;10.60;99.90;;;;;;4248945;27;20125;-83
2022/06/01 03:06:20;;;;;;;13.40;7.82;;;10.60;99.90;;;;;;4249187;27;20122;-83
2022/06/01 03:08:21;;;;;;;13.13;8.05;;;10.60;99.90;;;;;;4249651;27;20479;-83
2022/06/01 03:10:23;;;;;;;10.93;7.45;;;10.60;99.90;;;;;;4249587;27;20162;-83
2022/06/01 03:12:23;;;;;;;11.10;7.40;;;10.50;99.90;;;;;;4249322;27;20435;-83
2022/06/01 03:14:25;;;;;;;12.70;8.00;;;10.50;99.90;;;;;;4248977;27;20054;-84
2022/06/01 03:16:25;;;;;;;11.50;7.95;;;10.50;99.90;;;;;;4230453;28;20047;-84
2022/06/01 03:18:27;;;;;;;9.90;7.32;;;10.50;99.90;;;;;;4230882;28;20456;-83
2022/06/01 03:20:29;;;;;;;13.25;8.30;;;10.50;99.90;;;;;;4248802;27;20084;-83
2022/06/01 03:22:29;;;;;;;15.88;8.68;;;10.50;99.90;;;;;;4248779;27;20116;-84
2022/06/01 03:24:30;;;;;;;15.30;8.10;;;10.50;99.90;;;;;;4248996;27;20038;-83
2022/06/01 03:26:31;;;;;;;11.60;7.70;;;10.50;99.90;;;;;;4230744;28;20079;-83
2022/06/01 03:28:32;;;;;;;12.20;8.18;;;10.50;99.90;;;;;;4248283;27;20039;-83
2022/06/01 03:30:34;;;;;;;12.70;8.50;;;10.40;99.90;;;;;;4248684;27;20047;-83
2022/06/01 03:32:34;;;;;;;12.80;8.65;;;10.40;99.90;;;;;;4248986;27;20045;-83
2022/06/01 03:34:35;;;;;;;14.70;8.68;;;10.40;99.90;;;;;;4248583;27;20075;-84
2022/06/01 03:36:36;;;;;;;14.93;8.38;;;10.40;99.90;;;;;;4248113;27;20483;-83
2022/06/01 03:38:37;;;;;;;16.17;9.55;;;10.30;99.90;;;;;;4248907;27;20042;-83
2022/06/01 03:40:38;;;;;;;14.18;9.20;;;10.40;99.90;;;;;;4247939;27;20043;-84
2022/06/01 03:42:39;;;;;;;16.42;9.07;;;10.40;99.90;;;;;;4248745;27;20096;-84
2022/06/01 03:47:02;;;;;;;12.88;8.70;;;10.30;99.90;;;;;;4248635;27;20051;-84
2022/06/01 03:49:03;;;;;;;15.65;9.27;;;10.30;99.90;;;;;;4248719;27;20074;-84
2022/06/01 03:51:04;;;;;;;13.10;9.32;;;10.30;99.90;;;;;;4248850;27;20051;-83
2022/06/01 03:53:06;;;;;;;13.63;8.63;;;10.30;99.90;;;;;;4248217;27;20130;-83
2022/06/01 03:55:08;;;;;;;14.60;9.55;;;10.30;99.90;;;;;;4230352;28;20476;-83
2022/06/01 03:57:09;;;;;;;12.57;8.90;;;10.30;99.90;;;;;;4248545;27;20061;-83
2022/06/01 03:59:09;;;;;;;13.98;9.85;;;10.30;99.90;;;;;;4248519;27;20043;-82
2022/06/01 04:01:10;;;;;;;15.70;9.38;;;10.40;99.90;;;;;;4247256;27;20161;-84
2022/06/01 04:03:11;;;;;;;22.42;10.13;;;10.40;99.90;;;;;;4247758;27;20035;-84
2022/06/01 04:05:11;;;;;;;15.45;10.73;;;10.40;99.90;;;;;;4248714;27;20050;-84
2022/06/01 04:07:12;;;;;;;15.98;9.73;;;10.50;99.90;;;;;;4246056;27;20039;-84
2022/06/01 04:09:13;;;;;;;15.52;9.68;;;10.50;99.90;;;;;;4231320;28;20039;-84
2022/06/01 04:11:13;;;;;;;15.05;9.55;;;10.60;99.90;;;;;;4231345;28;20046;-84
2022/06/01 04:13:15;;;;;;;16.25;8.98;;;10.60;99.90;;;;;;4231254;28;20036;-84
2022/06/01 04:15:16;;;;;;;16.80;10.40;;;10.60;99.90;;;;;;4230755;28;20395;-83
2022/06/01 04:17:17;;;;;;;15.65;9.90;;;10.60;99.90;;;;;;4231284;28;20118;-84
2022/06/01 04:19:17;;;;;;;12.95;8.75;;;10.70;99.90;;;;;;4232619;27;20047;-84
2022/06/01 04:21:23;;;;;;;14.25;9.68;;;10.70;99.90;;;;;;4247936;27;20051;-84
2022/06/01 04:23:23;;;;;;;15.90;9.57;;;10.70;99.90;;;;;;4248056;27;20035;-84
2022/06/01 04:25:24;;;;;;;16.15;10.40;;;10.70;99.90;;;;;;4247760;27;20103;-84
2022/06/01 04:27:25;;;;;;;14.70;10.00;;;10.70;99.90;;;;;;4229734;28;20538;-84
2022/06/01 04:29:26;;;;;;;16.65;9.68;;;10.80;99.90;;;;;;4247531;27;20050;-84
2022/06/01 04:31:27;;;;;;;13.48;9.77;;;10.80;99.90;;;;;;4248029;27;20429;-84
2022/06/01 04:33:28;;;;;;;14.93;9.50;;;10.80;99.90;;;;;;4247843;27;20039;-84
2022/06/01 04:35:29;;;;;;;15.90;9.75;;;10.90;99.90;;;;;;4247919;27;20399;-84
2022/06/01 04:37:29;;;;;;;16.52;10.43;;;10.90;99.90;;;;;;4247254;27;20047;-84
2022/06/01 04:39:30;;;;;;;16.27;10.35;;;10.90;99.90;;;;;;4247700;27;20043;-84
2022/06/01 04:41:31;;;;;;;14.85;9.73;;;11.00;99.90;;;;;;4229761;28;20534;-84
2022/06/01 04:43:32;;;;;;;16.90;10.50;;;10.90;99.90;;;;;;4247713;27;20509;-84
2022/06/01 04:45:33;;;;;;;19.10;10.75;;;11.00;99.90;;;;;;4247697;27;20039;-84
2022/06/01 04:47:33;;;;;;;16.55;10.25;;;11.00;99.90;;;;;;4230038;28;20408;-84
2022/06/01 04:49:34;;;;;;;14.40;9.73;;;11.00;99.90;;;;;;4247414;27;20099;-84
2022/06/01 04:51:35;;;;;;;15.02;9.82;;;11.00;99.90;;;;;;4229263;28;20055;-84
2022/06/01 04:53:36;;;;;;;13.82;9.68;;;11.10;99.90;;;;;;4229747;28;20088;-84
2022/06/01 04:55:37;;;;;;;15.10;9.35;;;11.10;99.90;;;;;;4247907;27;20077;-85
2022/06/01 04:57:39;;;;;;;12.65;9.00;;;11.10;99.90;;;;;;4229235;28;20445;-85
2022/06/01 04:59:40;;;;;;;14.73;9.70;;;11.20;99.90;;;;;;4247800;27;20051;-85
2022/06/01 05:01:40;;;;;;;16.27;10.25;;;11.20;99.90;;;;;;4238494;27;20040;-85
2022/06/01 05:03:41;;;;;;;16.25;10.90;;;11.20;99.90;;;;;;4234671;27;20425;-85
2022/06/01 05:05:42;;;;;;;13.18;9.27;;;11.20;99.90;;;;;;4239389;27;20484;-84
2022/06/01 05:07:43;;;;;;;14.07;10.25;;;11.20;99.90;;;;;;4233755;28;20551;-84
2022/06/01 05:09:44;;;;;;;16.88;10.30;;;11.30;99.90;;;;;;4230957;28;20039;-82
2022/06/01 05:11:45;;;;;;;15.02;10.45;;;11.30;99.90;;;;;;4243817;28;20084;-83
2022/06/01 05:13:47;;;;;;;14.52;9.70;;;11.30;99.90;;;;;;4233818;28;20503;-83
2022/06/01 05:15:52;;;;;;;19.67;9.52;;;11.40;99.90;;;;;;4248352;28;20050;-83
2022/06/01 05:17:53;;;;;;;19.33;11.13;;;11.40;99.90;;;;;;4247931;28;20095;-84
2022/06/01 05:19:53;;;;;;;14.52;9.70;;;11.50;99.90;;;;;;4247506;28;20082;-84
2022/06/01 05:21:54;;;;;;;14.45;10.27;;;11.40;99.90;;;;;;4247406;28;20055;-84
2022/06/01 05:23:55;;;;;;;17.88;11.43;;;11.50;99.90;;;;;;4234562;28;20035;-83
2022/06/01 05:25:56;;;;;;;15.27;10.00;;;11.50;99.90;;;;;;4230614;28;20053;-83
2022/06/01 05:27:57;;;;;;;16.60;10.45;;;11.50;99.90;;;;;;4231191;28;20472;-84
2022/06/01 05:29:58;;;;;;;13.38;9.32;;;11.50;99.90;;;;;;4231378;28;20048;-83
2022/06/01 05:31:59;;;;;;;16.00;10.25;;;11.50;99.90;;;;;;4231596;28;20078;-83
2022/06/01 05:34:00;;;;;;;15.63;10.02;;;11.60;99.90;;;;;;4230938;28;20035;-84
2022/06/01 05:36:01;;;;;;;18.48;11.05;;;11.60;99.90;;;;;;4231323;28;20088;-84
2022/06/01 05:38:01;;;;;;;14.02;10.13;;;11.60;99.90;;;;;;4213215;28;20052;-84
2022/06/01 05:40:03;;;;;;;16.98;10.95;;;11.60;99.90;;;;;;4232275;28;20054;-83
2022/06/01 05:42:04;;;;;;;16.60;10.93;;;11.60;99.90;;;;;;4231617;28;20047;-83
2022/06/01 05:44:06;;;;;;;16.92;11.60;;;11.70;99.90;;;;;;4232151;28;20043;-84
2022/06/01 05:46:06;;;;;;;18.33;11.50;;;11.70;99.90;;;;;;4212753;28;20044;-84
2022/06/01 05:48:09;;;;;;;15.45;10.52;;;11.80;99.90;;;;;;4231129;28;20050;-84
2022/06/01 05:50:10;;;;;;;14.82;10.13;;;11.90;99.90;;;;;;4231090;28;20047;-84
2022/06/01 05:52:10;;;;;;;15.30;10.63;;;11.90;99.90;;;;;;4230421;28;20175;-84
2022/06/01 05:54:11;;;;;;;16.38;10.90;;;11.90;99.90;;;;;;4230011;28;20075;-84
2022/06/01 05:56:12;;;;;;;16.10;10.68;;;12.00;99.90;;;;;;4230352;28;20130;-84
2022/06/01 05:58:13;;;;;;;16.13;10.60;;;12.10;99.90;;;;;;4212325;28;20488;-84
2022/06/01 06:00:16;;;;;;;16.38;10.52;;;12.10;99.90;;;;;;4241154;28;20043;-84
2022/06/01 06:02:17;;;;;;;18.00;11.18;;;12.20;99.90;;;;;;4247449;27;20043;-84
2022/06/01 06:04:18;;;;;;;17.50;11.27;;;12.30;99.90;;;;;;4250263;27;20077;-84
2022/06/01 06:06:20;;;;;;;16.95;10.80;;;12.40;99.90;;;;;;4249922;27;20083;-84
2022/06/01 06:08:22;;;;;;;17.10;10.77;;;12.50;99.90;;;;;;4215741;28;20082;-84
2022/06/01 06:10:24;;;;;;;21.58;10.93;;;12.60;99.90;;;;;;4251109;27;20131;-84
2022/06/01 06:12:24;;;;;;;15.57;10.15;;;12.80;99.90;;;;;;4250528;27;20444;-84
2022/06/01 06:14:25;;;;;;;14.50;9.75;;;13.00;99.90;;;;;;4231851;28;20047;-85
2022/06/01 06:16:29;;;;;;;16.17;9.90;;;13.20;99.90;;;;;;4250353;27;20039;-85
2022/06/01 06:18:30;;;;;;;17.48;9.60;;;13.30;99.90;;;;;;4250432;27;20046;-84
2022/06/01 06:20:30;;;;;;;14.45;9.93;;;13.40;99.90;;;;;;4249953;27;20047;-84
2022/06/01 06:22:31;;;;;;;14.60;10.65;;;13.50;99.90;;;;;;4248487;27;20451;-84
2022/06/01 06:24:33;;;;;;;19.50;9.63;;;13.50;99.90;;;;;;4249299;27;20544;-84
2022/06/01 06:26:35;;;;;;;18.38;11.02;;;13.70;99.90;;;;;;4249329;27;20080;-84
2022/06/01 06:28:36;;;;;;;14.60;9.10;;;13.80;99.90;;;;;;4250089;27;20035;-84
2022/06/01 06:30:38;;;;;;;15.95;9.32;;;13.80;99.90;;;;;;4249555;27;20046;-84
2022/06/01 06:32:39;;;;;;;13.13;8.25;;;13.90;99.90;;;;;;4246403;27;20047;-84
2022/06/01 06:34:40;;;;;;;13.15;8.45;;;13.90;99.90;;;;;;4248456;27;20049;-84
2022/06/01 06:36:41;;;;;;;11.65;7.75;;;14.00;99.90;;;;;;4249500;27;20043;-84
2022/06/01 06:38:41;;;;;;;11.15;7.80;;;14.00;99.90;;;;;;4214739;28;20407;-84
2022/06/01 06:40:42;;;;;;;12.00;8.20;;;14.10;99.90;;;;;;4249826;27;20050;-85
2022/06/01 06:42:44;;;;;;;11.88;7.95;;;14.20;99.90;;;;;;4231714;28;20459;-84
2022/06/01 06:44:45;;;;;;;12.55;8.50;;;14.20;99.90;;;;;;4249739;27;20057;-83
2022/06/01 06:46:46;;;;;;;14.25;9.20;;;14.10;99.90;;;;;;4249744;27;20462;-84
2022/06/01 06:48:50;;;;;;;13.07;7.57;;;14.00;99.90;;;;;;4249879;27;20114;-83
2022/06/01 06:50:51;;;;;;;7.85;5.55;;;13.90;99.90;;;;;;4249709;27;20456;-84
2022/06/01 06:52:52;;;;;;;9.15;3.90;;;13.80;99.90;;;;;;4231077;28;20092;-83
2022/06/01 06:54:53;;;;;;;5.75;3.30;;;13.70;99.90;;;;;;4249438;27;20131;-85
2022/06/01 06:56:54;;;;;;;11.10;3.70;;;13.50;99.90;;;;;;4249164;27;20039;-84
2022/06/01 06:58:55;;;;;;;9.25;3.65;;;13.40;99.90;;;;;;4233609;28;20187;-83
2022/06/01 07:00:55;;;;;;;4.50;2.30;;;13.10;99.90;;;;;;4251420;27;20055;-84
2022/06/01 07:02:57;;;;;;;8.45;3.25;;;12.80;99.90;;;;;;4251461;27;20050;-84
2022/06/01 07:04:58;;;;;;;7.68;3.35;;;12.50;99.90;;;;;;4233331;28;20091;-84
2022/06/01 07:06:58;;;;;;;9.68;4.00;;;12.30;99.90;;;;;;4253819;27;20111;-84
2022/06/01 07:09:00;;;;;;;4.35;2.90;;;12.00;99.90;;;;;;4255448;27;20309;-83
2022/06/01 07:11:01;;;;;;;5.38;2.95;;;11.80;99.90;;;;;;4255905;27;20475;-84
2022/06/01 07:13:03;;;;;;;7.95;3.75;;;11.60;99.90;;;;;;4257603;27;20050;-83
2022/06/01 07:15:04;;;;;;;7.13;3.90;;;11.50;99.90;;;;;;4257241;27;20126;-83
2022/06/01 07:17:05;;;;;;;6.30;3.58;;;11.50;99.90;;;;;;4256400;27;20054;-83
2022/06/01 07:19:08;;;;;;;7.40;3.50;;;11.50;99.90;;;;;;4255662;27;20047;-83
2022/06/01 07:21:09;;;;;;;6.72;4.18;;;11.50;99.90;;;;;;4238499;28;20079;-83
2022/06/01 07:23:10;;;;;;;6.38;3.95;;;11.50;99.90;;;;;;4242060;28;20031;-83
2022/06/01 07:25:11;;;;;;;7.57;4.10;;;11.60;99.90;;;;;;4239031;28;20067;-83
2022/06/01 07:27:14;;;;;;;5.28;3.30;;;11.70;99.90;;;;;;4239633;28;20063;-84
2022/06/01 07:29:18;;;;;;;6.53;3.85;;;11.70;99.90;;;;;;4239767;28;20459;-84
2022/06/01 07:31:20;;;;;;;6.82;3.85;;;11.80;99.90;;;;;;4239093;28;20043;-83
2022/06/01 07:33:21;;;;;;;6.03;3.42;;;11.80;99.90;;;;;;4238526;27;20039;-84
2022/06/01 07:35:22;;;;;;;5.75;3.63;;;11.90;99.90;;;;;;4220087;28;20044;-83
2022/06/01 07:44:27;;;;;;;4.97;3.55;;;12.20;99.90;;;;;;4240483;28;20159;-83
2022/06/01 07:46:27;;;;;;;6.13;3.45;;;12.40;99.90;;;;;;4244317;28;20050;-83
2022/06/01 07:48:29;;;;;;;4.93;3.53;;;12.60;99.90;;;;;;4245544;28;20048;-83
2022/06/01 07:50:30;;;;;;;6.55;4.00;;;12.70;99.90;;;;;;4239596;28;20140;-83
2022/06/01 07:52:31;;;;;;;4.65;3.67;;;12.90;99.90;;;;;;4241612;28;20051;-84
2022/06/01 07:54:34;;;;;;;6.05;4.68;;;13.00;99.90;;;;;;4239791;28;20050;-84
2022/06/01 07:56:36;;;;;;;5.72;4.22;;;13.30;99.90;;;;;;4238667;28;20055;-85
2022/06/01 07:58:38;;;;;;;7.38;4.28;;;13.40;99.90;;;;;;4234762;28;20176;-84
2022/06/01 08:00:39;;;;;;;6.53;4.97;;;13.70;99.90;;;;;;4234920;28;20118;-84
2022/06/01 08:02:40;;;;;;;6.38;4.47;;;14.00;99.90;;;;;;4233862;28;20093;-84
2022/06/01 08:04:41;;;;;;;5.90;4.05;;;14.30;99.90;;;;;;4234136;28;20051;-84
2022/06/01 08:06:42;;;;;;;7.80;4.30;;;14.40;99.90;;;;;;4233565;28;20048;-84
2022/06/01 08:08:42;;;;;;;104.45;11.65;;;14.40;99.90;;;;;;4233032;28;20039;-84
2022/06/01 08:10:43;;;;;;;7.07;5.63;;;;;;;;;;4234136;28;20075;-84
2022/06/01 08:15:05;;;;;;;14.55;6.88;;;14.70;99.90;;;;;;4233154;28;20074;-84
2022/06/01 08:17:06;;;;;;;13.90;8.52;;;;;;;;;;4232062;28;20054;-84
2022/06/01 08:19:09;;;;;;;9.73;6.72;;;;;;;;;;4233277;28;20047;-84
2022/06/01 08:21:10;;;;;;;9.85;7.30;;;15.20;99.90;;;;;;4238486;27;20082;-84
2022/06/01 08:23:11;;;;;;;9.57;6.60;;;15.50;99.90;;;;;;4250806;27;20058;-84
2022/06/01 08:25:13;;;;;;;7.60;5.75;;;15.50;99.90;;;;;;4232969;28;20126;-83
2022/06/01 08:27:14;;;;;;;7.15;5.05;;;15.50;99.90;;;;;;4250730;27;20055;-83
2022/06/01 08:29:16;;;;;;;8.80;5.35;;;15.40;99.90;;;;;;4250978;27;20038;-84
2022/06/01 08:31:17;;;;;;;7.68;4.93;;;15.40;99.90;;;;;;4231698;28;20557;-84
2022/06/01 08:33:18;;;;;;;9.05;5.53;;;15.20;99.90;;;;;;4250596;27;20407;-84
2022/06/01 08:35:23;;;;;;;7.43;5.00;;;15.20;99.90;;;;;;4249597;27;20047;-83
2022/06/01 08:37:24;;;;;;;7.15;5.18;;;15.10;99.90;;;;;;4249789;27;20407;-83
2022/06/01 08:39:25;;;;;;;9.60;5.20;;;15.00;99.90;;;;;;4249631;27;20039;-84
2022/06/01 08:41:33;;;;;;;7.15;4.57;;;14.90;99.90;;;;;;4249251;27;20107;-83
2022/06/01 08:43:43;;;;;;;6.25;4.68;;;14.80;99.90;;;;;;4250258;27;20085;-83
2022/06/01 08:45:50;;;;;;;5.78;4.28;;;14.80;99.90;;;;;;4249902;27;20047;-83
2022/06/01 08:47:51;;;;;;;6.75;4.65;;;14.70;99.90;;;;;;4250575;27;20043;-84
2022/06/01 08:50:04;;;;;;;7.75;5.22;;;14.80;99.90;;;;;;4249713;27;20046;-83
2022/06/01 08:52:05;;;;;;;5.20;3.95;;;14.80;99.90;;;;;;4250856;27;20110;-83
2022/06/01 08:54:06;;;;;;;8.23;5.25;;;15.00;99.90;;;;;;4250007;27;20071;-83
2022/06/01 08:56:13;;;;;;;5.28;4.07;;;15.20;99.90;;;;;;4249115;27;20042;-83
2022/06/01 08:58:16;;;;;;;5.82;4.30;;;15.20;99.90;;;;;;4249886;27;20051;-83
2022/06/01 09:00:19;;;;;;;4.55;3.72;;;15.20;99.90;;;;;;4249294;27;20056;-84
2022/06/01 09:02:47;;;;;;;4.70;3.45;;;15.40;99.90;;;;;;4249743;27;20047;-84
2022/06/01 09:04:59;;;;;;;9.15;4.30;;;15.50;99.90;;;;;;4249692;27;20116;-84
2022/06/01 09:07:12;;;;;;;6.82;5.05;;;15.70;99.90;;;;;;4249628;27;20101;-83
2022/06/01 09:09:30;;;;;;;5.65;4.32;;;15.90;99.90;;;;;;4250091;27;20544;-84
2022/06/01 09:11:34;;;;;;;5.05;3.95;;;16.10;99.90;;;;;;4249229;27;20039;-84
2022/06/01 09:13:40;;;;;;;4.38;3.60;;;16.40;99.90;;;;;;4248882;28;20053;-83
2022/06/01 09:16:14;;;;;;;4.25;3.10;;;16.50;99.90;;;;;;4248819;28;20055;-84
2022/06/01 09:18:18;;;;;;;4.72;2.65;;;16.60;99.90;;;;;;4229057;28;20399;-84
2022/06/01 09:22:38;;;;;;;4.32;3.42;;;16.90;99.90;;;;;;4248102;27;20066;-84
2022/06/01 09:24:40;;;;;;;3.83;3.20;;;17.10;99.90;;;;;;4247838;28;20050;-84
2022/06/01 09:27:02;;;;;;;4.13;3.08;;;17.10;99.90;;;;;;4247315;28;20094;-83
2022/06/01 09:29:03;;;;;;;3.30;2.40;;;17.10;99.90;;;;;;4247976;28;20039;-84
2022/06/01 09:31:31;;;;;;;4.13;2.30;;;17.10;99.90;;;;;;4247869;28;20494;-84
2022/06/01 09:33:34;;;;;;;3.38;2.72;;;17.10;99.90;;;;;;4247642;28;20050;-84
2022/06/01 09:35:45;;;;;;;3.03;2.72;;;17.10;99.90;;;;;;4247817;28;20510;-83
2022/06/01 09:37:46;;;;;;;4.18;2.42;;;17.30;99.90;;;;;;4248148;27;20095;-84
2022/06/01 09:40:00;;;;;;;2.88;2.05;;;17.50;99.90;;;;;;4251524;27;20035;-84
2022/06/01 09:42:34;;;;;;;2.15;1.60;;;17.70;99.90;;;;;;4251049;27;20487;-83
2022/06/01 09:44:40;;;;;;;2.10;1.90;;;17.80;99.80;;;;;;4231469;27;20083;-83
2022/06/01 09:46:40;;;;;;;3.00;1.90;;;18.20;99.80;;;;;;4250796;27;20432;-84
2022/06/01 09:48:47;;;;;;;1.85;1.73;;;18.10;99.20;;;;;;4250849;27;20043;-84
2022/06/01 09:51:01;;;;;;;2.90;2.00;;;18.20;98.70;;;;;;4250740;27;20050;-84
2022/06/01 09:53:10;;;;;;;2.78;2.00;;;18.40;98.60;;;;;;4250432;27;20053;-83
2022/06/01 09:55:21;;;;;;;3.00;2.10;;;18.80;97.90;;;;;;4250354;27;20050;-83
2022/06/01 09:57:33;;;;;;;2.17;1.98;;;19.20;98.10;;;;;;4250638;27;20074;-84
2022/06/01 10:06:57;;;;;;;2.90;1.98;;;20.10;94.80;;;;;;4250506;27;20051;-84
2022/06/01 10:09:09;;;;;;;2.80;1.65;;;20.20;95.10;;;;;;4250368;27;20086;-83
2022/06/01 10:11:32;;;;;;;1.73;1.40;;;20.50;95.50;;;;;;4250153;27;20132;-84
2022/06/01 10:13:49;;;;;;;2.08;1.10;;;20.80;93.30;;;;;;4250316;27;20035;-84
2022/06/01 10:15:51;;;;;;;0.85;0.70;;;20.90;94.20;;;;;;4250185;27;20039;-84
2022/06/01 10:17:57;;;;;;;1.02;0.82;;;20.70;93.60;;;;;;4249854;27;20074;-84
2022/06/01 10:20:33;;;;;;;0.98;0.80;;;20.50;93.00;;;;;;4250271;27;20063;-84
2022/06/01 10:22:45;;;;;;;0.70;0.70;;;20.20;92.30;;;;;;4164390;28;20084;-84
2022/06/01 10:24:51;;;;;;;1.13;0.80;;;19.90;92.00;;;;;;4218854;27;20562;-84
2022/06/01 10:26:55;;;;;;;8.57;1.85;;;19.90;92.00;;;;;;4249842;27;20034;-84
2022/06/01 10:29:15;;;;;;;1.83;1.40;;;19.80;91.50;;;;;;4250118;27;20035;-84
2022/06/01 10:31:24;;;;;;;1.80;1.20;;;19.70;91.10;;;;;;4250084;27;20042;-85
2022/06/01 10:33:40;;;;;;;2.38;1.08;;;19.80;90.90;;;;;;4252303;27;20601;-84
2022/06/01 10:35:49;;;;;;;1.00;0.80;;;20.10;90.50;;;;;;4250022;27;20042;-84
2022/06/01 10:38:08;;;;;;;2.15;1.30;;;20.20;89.80;;;;;;4249939;27;20376;-84
2022/06/01 10:40:21;;;;;;;;;;;20.20;90.10;;;;;;4250232;27;20054;-84
2022/06/01 10:45:12;;;;;;;2.17;1.43;;;20.20;88.70;;;;;;4231469;28;20055;-84
2022/06/01 10:47:42;;;;;;;1.83;1.27;;;20.10;88.00;;;;;;4233525;28;20820;-85
2022/06/01 10:49:57;;;;;;;1.10;1.00;;;20.20;87.20;;;;;;4249653;27;20537;-84
2022/06/01 10:52:30;;;;;;;1.80;0.82;;;20.30;87.60;;;;;;4249903;27;20047;-85
2022/06/01 10:54:44;;;;;;;1.10;0.98;;;20.60;86.60;;;;;;4249663;27;20382;-84
2022/06/01 10:56:45;;;;;;;1.30;0.88;;;20.80;83.30;;;;;;4232179;28;20407;-85
2022/06/01 10:58:47;;;;;;;0.70;0.70;;;20.70;83.80;;;;;;4249789;27;20039;-85
2022/06/01 11:01:10;;;;;;;1.02;0.80;;;20.60;83.50;;;;;;4231774;28;20165;-85
2022/06/01 11:03:12;;;;;;;1.27;0.82;;;20.70;82.50;;;;;;4249587;27;20122;-85
2022/06/01 11:05:23;;;;;;;1.20;1.10;;;20.70;82.90;;;;;;4249525;27;20065;-85
2022/06/01 11:07:49;;;;;;;1.83;1.40;;;20.70;82.90;;;;;;4249456;27;20043;-84
2022/06/01 11:10:07;;;;;;;1.75;1.30;;;20.70;81.90;;;;;;4249177;27;20059;-84
2022/06/01 11:12:31;;;;;;;2.08;1.10;;;20.80;83.20;;;;;;4249072;27;20051;-84
2022/06/01 11:14:53;;;;;;;1.42;1.00;;;21.00;80.60;;;;;;4233302;27;20058;-84
2022/06/01 11:16:58;;;;;;;1.70;1.40;;;20.90;80.50;;;;;;4248952;27;20043;-85
2022/06/01 11:19:19;;;;;;;2.08;1.60;;;20.70;82.20;;;;;;4248771;27;20047;-85
2022/06/01 11:21:34;;;;;;;1.50;1.20;;;20.30;81.70;;;;;;4248076;27;20084;-84